• Join FlightAware (Why Join?)
  • Login
  • US Flag 
08:59AM EDT


 

Airport Tracker/Info


-or-


 

Live Flight TrackerFlight Track Log ✈ VH-ZWO ✈ 20-Apr-2013 ✈ YGEL / GET - YPJT / JAD

Flight Track Log - Related Links

Times and Time Zones

All times are in EDT time to prevent confusion due to time zone crossing. See the VH-ZWO flight status page for this flight to view local times or setup timezone preferences in your user account.

Time Position Orientation Groundspeed Altitude Reporting Facility
EDT Latitude Longitude Course Direction KTS MPH feet Rate Location/Type
11:35AM -28.9317 114.8073 158° South 21,000  Level Aus ATC (Calculated)
11:38AM -28.9357 114.8102 148° Southeast  Level FlightAware Approximate
11:38AM -29.1436 114.9597 190° South 21,000  Level Aus ATC (Calculated)
11:39AM -29.1436 114.9597 190° South 21,000 -1,500 Level Aus ATC (Calculated)
11:40AM -29.1436 114.9597 190° South 21,000 -1,620 Level Aus ATC (Calculated)
11:41AM -29.2625 115.0455 148° Southeast  Level FlightAware Approximate
11:42AM -29.3273 115.0924 148° Southeast  Level FlightAware Approximate
11:43AM -29.3305 115.0948 148° Southeast  Level FlightAware Approximate
11:43AM -29.2202 114.9434 148° Southeast 194 223 14,800  Level Aus ATC (RADAR)
11:45AM -29.3497 114.9895 163° South 203 234 17,600 1,080 Climbing Aus ATC (RADAR)
11:46AM -29.4018 115.0120 163° South 195 224 18,600 840 Climbing Aus ATC (RADAR)
11:46AM -29.4180 115.0190 163° South 190 219 18,800 720 Climbing FlightAware
11:47AM -29.4500 115.0310 162° South 201 231 19,300 780 Climbing FlightAware
11:48AM -29.4900 115.0450 162° South 200 230 19,900 960 Climbing FlightAware
11:48AM -29.4951 115.0442 162° South 197 227 20,100 960 Climbing Aus ATC (RADAR)
11:48AM -29.5310 115.0573 162° South 201 231 20,600 420 Climbing Aus ATC (RADAR)
11:48AM -29.5290 115.0590 162° South 204 235 20,400 480 Descending FlightAware
11:49AM -29.5630 115.0720 162° South 206 237 20,900 780 Climbing FlightAware
11:49AM -29.5867 115.0740 162° South 208 239 21,200 60 Climbing Aus ATC (RADAR)
11:51AM -29.6530 115.1040 162° South 241 277 21,000 -120 Descending FlightAware
11:51AM -29.6756 115.1104 162° South 246 283 21,100 180 Climbing Aus ATC (RADAR)
11:52AM -29.7211 115.1262 163° South 255 293 21,200 -120 Climbing Aus ATC (RADAR)
11:52AM -29.7330 115.1340 163° South 253 291 21,000 -120 Descending FlightAware
11:53AM -29.7904 115.1540 163° South 262 302 21,100  Climbing Aus ATC (RADAR)
11:53AM -29.8150 115.1640 163° South 267 307 21,000  Descending FlightAware
11:54AM -29.8850 115.1877 163° South 265 305 21,100  Climbing Aus ATC (RADAR)
11:54AM -29.8970 115.1950 163° South 269 310 21,000  Descending FlightAware
11:55AM -29.9499 115.2132 163° South 266 306 21,100  Climbing Aus ATC (RADAR)
11:55AM -29.9810 115.2250 163° South 270 311 21,000  Descending FlightAware
11:56AM -30.0217 115.2387 163° South 268 308 21,100  Climbing Aus ATC (RADAR)
11:57AM -30.0970 115.2690 163° South 271 312 21,000 -60 Descending FlightAware
11:58AM -30.1440 115.2860 163° South 272 313 21,000 60 Level FlightAware
11:58AM -30.1896 115.2993 163° South 271 312 21,100  Climbing Aus ATC (RADAR)
11:58AM -30.1980 115.3060 163° South 271 312 21,000  Descending FlightAware
11:59AM -30.2655 115.3330 163° South 266 306 21,100  Climbing Aus ATC (RADAR)
11:59AM -30.2630 115.3300 163° South 269 310 21,000 -180 Descending FlightAware
12:00PM -30.3110 115.3480 162° South 258 297 21,000 60 Level FlightAware
12:00PM -30.3482 115.3622 162° South 264 304 21,100  Climbing Aus ATC (RADAR)
12:01PM -30.3570 115.3650 162° South 258 297 21,000 -180 Descending FlightAware
12:01PM -30.3990 115.3810 162° South 257 296 21,000 60 Level FlightAware
12:01PM -30.4302 115.3910 162° South 262 302 21,100  Climbing Aus ATC (RADAR)
12:02PM -30.4560 115.4020 162° South 257 296 21,000  Descending FlightAware
12:02PM -30.4887 115.4128 162° South 263 303 21,100  Climbing Aus ATC (RADAR)
12:03PM -30.5030 115.4200 162° South 256 295 21,000  Descending FlightAware
12:03PM -30.5581 115.4395 162° South 261 300 21,100  Climbing Aus ATC (RADAR)
12:03PM -30.5550 115.4390 162° South 257 296 21,000 -180 Descending FlightAware
12:04PM -30.6020 115.4570 162° South 256 295 21,000 60 Level FlightAware
12:04PM -30.6340 115.4678 162° South 262 302 21,100  Climbing Aus ATC (RADAR)
12:05PM -30.6490 115.4740 162° South 257 296 21,000  Descending FlightAware
12:05PM -30.7034 115.4952 162° South 263 303 21,100  Climbing Aus ATC (RADAR)
12:05PM -30.7020 115.4940 162° South 257 296 21,000 -180 Descending FlightAware
12:06PM -30.7560 115.5150 162° South 258 297 21,000 60 Level FlightAware
12:07PM -30.7855 115.5253 162° South 263 303 21,100  Climbing Aus ATC (RADAR)
12:07PM -30.8020 115.5320 162° South 257 296 21,000 -120 Descending FlightAware
12:08PM -30.8510 115.5500 162° South 257 296 21,000  Level FlightAware
12:08PM -30.9040 115.5700 162° South 256 295 21,000 60 Level FlightAware
12:09PM -30.9312 115.5803 162° South 263 303 21,100  Climbing Aus ATC (RADAR)
12:09PM -30.9460 115.5860 162° South 256 295 21,000  Descending FlightAware
12:10PM -31.0009 115.6065 162° South 263 303 21,100  Climbing Aus ATC (RADAR)
12:10PM -31.0010 115.6070 162° South 256 295 21,000 -180 Descending FlightAware
12:10PM -31.0380 115.6210 162° South 256 295 21,000 60 Level FlightAware
12:11PM -31.0707 115.6329 162° South 263 303 21,100 -120 Climbing Aus ATC (RADAR)
12:11PM -31.0980 115.6440 162° South 257 296 20,900 -1,020 Descending FlightAware
12:12PM -31.1380 115.6590 162° South 271 312 20,100 -1,500 Descending FlightAware
12:12PM -31.1472 115.6616 162° South 270 311 20,000 -1,440 Descending Aus ATC (RADAR)
12:12PM -31.1960 115.6810 162° South 271 312 18,900 -1,500 Descending FlightAware
12:13PM -31.2186 115.6893 162° South 270 311 18,500 -1,620 Descending Aus ATC (RADAR)
12:13PM -31.2520 115.7020 162° South 268 308 17,700 -1,620 Descending FlightAware
12:14PM -31.2923 115.7110 162° South 272 313 16,900 -1,500 Descending Aus ATC (RADAR)
12:14PM -31.2970 115.7120 162° South 264 304 16,700 -1,680 Descending FlightAware
12:15PM -31.3550 115.7240 170° South 261 300 15,400 -1,560 Descending FlightAware
12:15PM -31.4010 115.7330 171° South 262 302 14,500 -1,380 Descending FlightAware
12:16PM -31.4436 115.7420 171° South 261 300 13,800 -1,560 Descending Aus ATC (RADAR)
12:16PM -31.4460 115.7430 171° South 249 287 13,600 -1,560 Descending FlightAware
12:17PM -31.5020 115.7550 170° South 245 282 12,400 -1,440 Descending FlightAware
12:18PM -31.5580 115.7660 170° South 246 283 11,200 -1,500 Descending FlightAware
12:18PM -31.5810 115.7707 170° South 246 283 10,800 -1,620 Descending Aus ATC (RADAR)
12:18PM -31.6100 115.7770 170° South 234 269 10,000 -1,500 Descending FlightAware
12:19PM -31.6410 115.7840 169° South 233 268 9,300 -1,620 Descending FlightAware
12:19PM -31.6770 115.7920 169° South 229 264 8,400 -1,680 Descending FlightAware
12:20PM -31.7010 115.7970 170° South 230 265 7,800 -1,440 Descending FlightAware
12:20PM -31.7330 115.8040 169° South 215 247 7,100 -1,500 Descending FlightAware
12:20PM -31.7430 115.8060 170° South 213 245 6,800 -1,500 Descending FlightAware
12:21PM -31.7813 115.8137 170° South 216 249 6,000 -1,440 Descending Aus ATC (RADAR)
12:22PM -31.8360 115.8250 170° South 201 231 4,400 -1,560 Descending FlightAware
12:22PM -31.8603 115.8305 170° South 203 234 3,800 -1,620 Descending Aus ATC (RADAR)
12:23PM -31.8650 115.8310 170° South 196 226 3,600 -1,380 Descending FlightAware
12:23PM -31.8910 115.8370 169° South 199 229 3,000 -660 Descending FlightAware
12:23PM -31.9182 115.8429 169° South 186 214 3,000 -240 Level Aus ATC (RADAR)
12:23PM -31.9160 115.8420 169° South 169 194 2,900 -1,440 Descending FlightAware
12:24PM -31.9420 115.8480 169° South 194 223 2,300 -1,140 Descending FlightAware
12:24PM -31.9640 115.8520 171° South 184 212 1,900 -420 Descending FlightAware
12:25PM -31.9867 115.8574 171° South 185 213 2,000  Climbing Aus ATC (RADAR)
12:25PM -31.9890 115.8580 171° South 165 190 1,900 -540 Descending FlightAware
12:25PM -32.0120 115.8630 170° South 163 188 1,700 -360 Descending FlightAware
12:26PM -32.0310 115.8670 170° South 167 192 1,600 -180 Descending FlightAware
12:26PM -32.0430 115.8690 172° South 151 174 1,600 -300 Level FlightAware
12:27PM -32.0650 115.8730 171° South 165 190 1,400 -420 Descending FlightAware
12:27PM -32.0813 115.8745 171° South 164 189 1,300 -480 Descending Aus ATC (RADAR)
12:27PM -32.0840 115.8740 171° South 164 189 1,200 -360 Descending FlightAware
12:27PM -32.1050 115.8830 160° South 157 181 1,100 -180 Descending FlightAware
12:28PM -32.1120 115.8930 130° Southeast 156 180 1,100  Level FlightAware
12:28PM -32.1130 115.8970 106° East 160 184 1,100  Level FlightAware
12:28PM -32.1080 115.9130 70° East 157 181 1,100  Level FlightAware
12:28PM -32.1010 115.9210 44° Northeast 132 152 1,100  Level FlightAware
12:28PM -32.0970 115.9220 12° North 128 147 1,100 -240 Level FlightAware
12:29PM -32.0850 115.9140 331° Northwest 116 133 1,000 -540 Descending FlightAware
12:29PM -32.0820 115.9090 305° West 100 115 800 -840 Descending FlightAware
12:29PM -32.0820 115.9070 270° West 97 112 800 -840 Level FlightAware
12:30PM -32.0870 115.8960 242° Southwest 90 104 400 -960 Descending FlightAware
12:30PM -32.0920 115.8880 234° Southwest 86 99 100 -900 Descending FlightAware
12:30PM -32.0970 115.8800 234° Southwest 62 71 -180 Descending FlightAware
12:31PM -32.0980 115.8780 239° Southwest 36 41  Level FlightAware
12:31PM -32.1000 115.8740 239° Southwest 36 41  Level FlightAware
12:34PM -32.0975 115.8812 318° Northwest  Level FlightAware Approximate
12:35PM -32.0975 115.8811 318° Northwest  Level Estimated
12:36PM -32.0975 115.8811 318° Northwest  Level Estimated
12:37PM -32.0975 115.8811 318° Northwest  Level Estimated
12:38PM -32.0975 115.8811 318° Northwest  Level Estimated
12:39PM -32.0975 115.8811 318° Northwest  Level Estimated
12:40PM -32.0975 115.8811 318° Northwest  Level Estimated
12:41PM -32.0975 115.8811 318° Northwest  Level Estimated